sensor_id;sensor_type;location;lat;lon;timestamp;P1;durP1;ratioP1;P2;durP2;ratioP2
9880;SDS011;4979;51.014;6.678;2024-02-15T00:00:35;10.23;;;4.28;;
9880;SDS011;4979;51.014;6.678;2024-02-15T00:03:01;10.38;;;3.15;;
9880;SDS011;4979;51.014;6.678;2024-02-15T00:05:27;7.68;;;3.35;;
9880;SDS011;4979;51.014;6.678;2024-02-15T00:07:53;9.82;;;4.47;;
9880;SDS011;4979;51.014;6.678;2024-02-15T00:10:19;9.18;;;3.65;;
9880;SDS011;4979;51.014;6.678;2024-02-15T00:12:48;7.28;;;3.90;;
9880;SDS011;4979;51.014;6.678;2024-02-15T00:15:15;10.10;;;3.72;;
9880;SDS011;4979;51.014;6.678;2024-02-15T00:17:40;10.27;;;4.50;;
9880;SDS011;4979;51.014;6.678;2024-02-15T00:20:06;11.38;;;4.07;;
9880;SDS011;4979;51.014;6.678;2024-02-15T00:22:34;7.97;;;3.20;;
9880;SDS011;4979;51.014;6.678;2024-02-15T00:25:03;9.38;;;4.70;;
9880;SDS011;4979;51.014;6.678;2024-02-15T00:27:29;7.53;;;3.55;;
9880;SDS011;4979;51.014;6.678;2024-02-15T00:29:57;10.70;;;3.90;;
9880;SDS011;4979;51.014;6.678;2024-02-15T00:32:23;12.27;;;3.78;;
9880;SDS011;4979;51.014;6.678;2024-02-15T00:34:49;10.82;;;3.53;;
9880;SDS011;4979;51.014;6.678;2024-02-15T00:37:14;10.32;;;4.00;;
9880;SDS011;4979;51.014;6.678;2024-02-15T00:39:41;12.05;;;3.45;;
9880;SDS011;4979;51.014;6.678;2024-02-15T00:42:08;7.57;;;3.42;;
9880;SDS011;4979;51.014;6.678;2024-02-15T00:44:34;4.85;;;3.10;;
9880;SDS011;4979;51.014;6.678;2024-02-15T00:47:00;7.65;;;3.55;;
9880;SDS011;4979;51.014;6.678;2024-02-15T00:49:25;8.63;;;3.33;;
9880;SDS011;4979;51.014;6.678;2024-02-15T00:51:52;6.47;;;3.30;;
9880;SDS011;4979;51.014;6.678;2024-02-15T00:54:18;12.45;;;4.38;;
9880;SDS011;4979;51.014;6.678;2024-02-15T00:56:44;7.07;;;3.45;;
9880;SDS011;4979;51.014;6.678;2024-02-15T00:59:09;10.10;;;3.08;;
9880;SDS011;4979;51.014;6.678;2024-02-15T01:01:35;12.13;;;4.00;;
9880;SDS011;4979;51.014;6.678;2024-02-15T01:04:04;8.25;;;3.17;;
9880;SDS011;4979;51.014;6.678;2024-02-15T01:06:29;9.25;;;3.33;;
9880;SDS011;4979;51.014;6.678;2024-02-15T01:08:55;9.10;;;3.75;;
9880;SDS011;4979;51.014;6.678;2024-02-15T01:11:20;8.27;;;3.13;;
9880;SDS011;4979;51.014;6.678;2024-02-15T01:13:46;12.80;;;3.22;;
9880;SDS011;4979;51.014;6.678;2024-02-15T01:16:11;8.20;;;3.38;;
9880;SDS011;4979;51.014;6.678;2024-02-15T01:18:37;7.90;;;3.40;;
9880;SDS011;4979;51.014;6.678;2024-02-15T01:21:03;11.07;;;3.58;;
9880;SDS011;4979;51.014;6.678;2024-02-15T01:23:29;11.27;;;3.75;;
9880;SDS011;4979;51.014;6.678;2024-02-15T01:25:54;8.85;;;4.43;;
9880;SDS011;4979;51.014;6.678;2024-02-15T01:28:20;10.90;;;4.00;;
9880;SDS011;4979;51.014;6.678;2024-02-15T01:30:47;14.27;;;4.40;;
9880;SDS011;4979;51.014;6.678;2024-02-15T01:33:12;6.60;;;3.83;;
9880;SDS011;4979;51.014;6.678;2024-02-15T01:35:38;9.20;;;3.88;;
9880;SDS011;4979;51.014;6.678;2024-02-15T01:38:04;10.48;;;4.43;;
9880;SDS011;4979;51.014;6.678;2024-02-15T01:40:30;12.65;;;4.35;;
9880;SDS011;4979;51.014;6.678;2024-02-15T01:42:56;15.43;;;4.75;;
9880;SDS011;4979;51.014;6.678;2024-02-15T01:45:23;11.15;;;4.38;;
9880;SDS011;4979;51.014;6.678;2024-02-15T01:47:50;8.15;;;4.63;;
9880;SDS011;4979;51.014;6.678;2024-02-15T01:50:17;13.68;;;4.57;;
9880;SDS011;4979;51.014;6.678;2024-02-15T01:52:44;12.60;;;4.47;;
9880;SDS011;4979;51.014;6.678;2024-02-15T01:55:12;11.45;;;4.30;;
9880;SDS011;4979;51.014;6.678;2024-02-15T01:57:40;13.80;;;4.50;;
9880;SDS011;4979;51.014;6.678;2024-02-15T02:00:12;14.77;;;5.68;;
9880;SDS011;4979;51.014;6.678;2024-02-15T02:02:41;18.23;;;4.95;;
9880;SDS011;4979;51.014;6.678;2024-02-15T02:05:08;9.40;;;3.95;;
9880;SDS011;4979;51.014;6.678;2024-02-15T02:07:34;8.68;;;3.83;;
9880;SDS011;4979;51.014;6.678;2024-02-15T02:10:00;15.88;;;5.35;;
9880;SDS011;4979;51.014;6.678;2024-02-15T02:12:26;9.05;;;4.45;;
9880;SDS011;4979;51.014;6.678;2024-02-15T02:14:52;14.88;;;4.82;;
9880;SDS011;4979;51.014;6.678;2024-02-15T02:17:19;16.98;;;7.00;;
9880;SDS011;4979;51.014;6.678;2024-02-15T02:19:45;12.93;;;6.10;;
9880;SDS011;4979;51.014;6.678;2024-02-15T02:22:10;15.75;;;5.63;;
9880;SDS011;4979;51.014;6.678;2024-02-15T02:24:40;10.18;;;4.82;;
9880;SDS011;4979;51.014;6.678;2024-02-15T02:27:29;9.68;;;3.45;;
9880;SDS011;4979;51.014;6.678;2024-02-15T02:29:57;7.28;;;3.00;;
9880;SDS011;4979;51.014;6.678;2024-02-15T02:32:24;8.45;;;3.13;;
9880;SDS011;4979;51.014;6.678;2024-02-15T02:34:50;10.48;;;3.50;;
9880;SDS011;4979;51.014;6.678;2024-02-15T02:37:18;7.00;;;2.97;;
9880;SDS011;4979;51.014;6.678;2024-02-15T02:39:44;14.77;;;3.22;;
9880;SDS011;4979;51.014;6.678;2024-02-15T02:42:09;9.73;;;3.35;;
9880;SDS011;4979;51.014;6.678;2024-02-15T02:44:35;9.27;;;3.50;;
9880;SDS011;4979;51.014;6.678;2024-02-15T02:47:00;8.98;;;2.80;;
9880;SDS011;4979;51.014;6.678;2024-02-15T02:49:26;7.15;;;2.65;;
9880;SDS011;4979;51.014;6.678;2024-02-15T02:51:51;6.88;;;2.42;;
9880;SDS011;4979;51.014;6.678;2024-02-15T02:54:17;8.25;;;2.53;;
9880;SDS011;4979;51.014;6.678;2024-02-15T02:56:43;7.63;;;2.90;;
9880;SDS011;4979;51.014;6.678;2024-02-15T02:59:10;7.93;;;2.70;;
9880;SDS011;4979;51.014;6.678;2024-02-15T03:01:35;8.45;;;2.50;;
9880;SDS011;4979;51.014;6.678;2024-02-15T03:04:01;7.68;;;2.88;;
9880;SDS011;4979;51.014;6.678;2024-02-15T03:06:27;7.18;;;2.70;;
9880;SDS011;4979;51.014;6.678;2024-02-15T03:08:53;5.68;;;2.88;;
9880;SDS011;4979;51.014;6.678;2024-02-15T03:11:22;10.80;;;2.65;;
9880;SDS011;4979;51.014;6.678;2024-02-15T03:13:48;4.75;;;2.58;;
9880;SDS011;4979;51.014;6.678;2024-02-15T03:16:14;8.57;;;3.08;;
9880;SDS011;4979;51.014;6.678;2024-02-15T03:18:39;4.85;;;2.42;;
9880;SDS011;4979;51.014;6.678;2024-02-15T03:21:06;6.95;;;2.50;;
9880;SDS011;4979;51.014;6.678;2024-02-15T03:23:33;6.60;;;2.42;;
9880;SDS011;4979;51.014;6.678;2024-02-15T03:26:01;4.68;;;2.65;;
9880;SDS011;4979;51.014;6.678;2024-02-15T03:28:26;3.05;;;2.22;;
9880;SDS011;4979;51.014;6.678;2024-02-15T03:30:52;5.30;;;2.10;;
9880;SDS011;4979;51.014;6.678;2024-02-15T03:33:17;7.10;;;2.00;;
9880;SDS011;4979;51.014;6.678;2024-02-15T03:35:43;3.80;;;1.60;;
9880;SDS011;4979;51.014;6.678;2024-02-15T03:38:09;4.60;;;2.10;;
9880;SDS011;4979;51.014;6.678;2024-02-15T03:40:34;4.15;;;2.03;;
9880;SDS011;4979;51.014;6.678;2024-02-15T03:43:00;4.95;;;2.17;;
9880;SDS011;4979;51.014;6.678;2024-02-15T03:45:26;5.90;;;2.05;;
9880;SDS011;4979;51.014;6.678;2024-02-15T03:47:52;7.50;;;2.33;;
9880;SDS011;4979;51.014;6.678;2024-02-15T03:50:18;4.18;;;2.25;;
9880;SDS011;4979;51.014;6.678;2024-02-15T03:52:43;5.13;;;2.78;;
9880;SDS011;4979;51.014;6.678;2024-02-15T03:55:10;3.05;;;2.40;;
9880;SDS011;4979;51.014;6.678;2024-02-15T03:57:37;5.18;;;2.42;;
9880;SDS011;4979;51.014;6.678;2024-02-15T04:00:08;4.30;;;2.10;;
9880;SDS011;4979;51.014;6.678;2024-02-15T04:02:36;5.15;;;2.58;;
9880;SDS011;4979;51.014;6.678;2024-02-15T04:05:02;5.82;;;2.28;;
9880;SDS011;4979;51.014;6.678;2024-02-15T04:07:30;2.10;;;1.90;;
9880;SDS011;4979;51.014;6.678;2024-02-15T04:09:55;3.65;;;1.92;;
9880;SDS011;4979;51.014;6.678;2024-02-15T04:12:21;9.18;;;1.73;;
9880;SDS011;4979;51.014;6.678;2024-02-15T04:14:47;3.35;;;2.58;;
9880;SDS011;4979;51.014;6.678;2024-02-15T04:17:13;5.43;;;2.13;;
9880;SDS011;4979;51.014;6.678;2024-02-15T04:19:44;2.45;;;2.10;;
9880;SDS011;4979;51.014;6.678;2024-02-15T04:22:11;2.22;;;2.03;;
9880;SDS011;4979;51.014;6.678;2024-02-15T04:24:37;6.38;;;2.20;;
9880;SDS011;4979;51.014;6.678;2024-02-15T04:27:06;3.88;;;1.98;;
9880;SDS011;4979;51.014;6.678;2024-02-15T04:29:37;3.42;;;1.90;;
9880;SDS011;4979;51.014;6.678;2024-02-15T04:32:05;3.90;;;1.88;;
9880;SDS011;4979;51.014;6.678;2024-02-15T04:34:34;2.65;;;1.98;;
9880;SDS011;4979;51.014;6.678;2024-02-15T04:37:00;2.25;;;1.80;;
9880;SDS011;4979;51.014;6.678;2024-02-15T04:39:26;6.45;;;1.90;;
9880;SDS011;4979;51.014;6.678;2024-02-15T04:41:53;6.50;;;2.38;;
9880;SDS011;4979;51.014;6.678;2024-02-15T04:44:19;5.18;;;2.10;;
9880;SDS011;4979;51.014;6.678;2024-02-15T04:46:52;3.80;;;2.25;;
9880;SDS011;4979;51.014;6.678;2024-02-15T04:49:18;5.25;;;2.33;;
9880;SDS011;4979;51.014;6.678;2024-02-15T04:51:44;7.30;;;2.05;;
9880;SDS011;4979;51.014;6.678;2024-02-15T04:54:10;5.05;;;2.13;;
9880;SDS011;4979;51.014;6.678;2024-02-15T04:56:41;9.50;;;2.53;;
9880;SDS011;4979;51.014;6.678;2024-02-15T04:59:08;5.65;;;2.15;;
9880;SDS011;4979;51.014;6.678;2024-02-15T05:01:37;4.55;;;2.03;;
9880;SDS011;4979;51.014;6.678;2024-02-15T05:04:02;6.60;;;2.47;;
9880;SDS011;4979;51.014;6.678;2024-02-15T05:06:32;6.70;;;2.30;;
9880;SDS011;4979;51.014;6.678;2024-02-15T05:08:58;3.65;;;2.15;;
9880;SDS011;4979;51.014;6.678;2024-02-15T05:11:25;6.00;;;2.30;;
9880;SDS011;4979;51.014;6.678;2024-02-15T05:13:51;4.53;;;2.47;;
9880;SDS011;4979;51.014;6.678;2024-02-15T05:16:17;8.68;;;2.72;;
9880;SDS011;4979;51.014;6.678;2024-02-15T05:18:43;5.18;;;2.70;;
9880;SDS011;4979;51.014;6.678;2024-02-15T05:21:10;6.03;;;2.50;;
9880;SDS011;4979;51.014;6.678;2024-02-15T05:23:37;5.75;;;2.40;;
9880;SDS011;4979;51.014;6.678;2024-02-15T05:28:37;6.03;;;2.40;;
9880;SDS011;4979;51.014;6.678;2024-02-15T05:31:12;5.25;;;2.55;;
9880;SDS011;4979;51.014;6.678;2024-02-15T05:33:42;8.38;;;2.72;;
9880;SDS011;4979;51.014;6.678;2024-02-15T05:36:12;6.88;;;2.25;;
9880;SDS011;4979;51.014;6.678;2024-02-15T05:38:39;12.25;;;3.13;;
9880;SDS011;4979;51.014;6.678;2024-02-15T05:41:05;7.53;;;3.13;;
9880;SDS011;4979;51.014;6.678;2024-02-15T05:43:35;6.10;;;2.70;;
9880;SDS011;4979;51.014;6.678;2024-02-15T05:46:02;8.23;;;3.67;;
9880;SDS011;4979;51.014;6.678;2024-02-15T05:48:28;7.82;;;3.10;;
9880;SDS011;4979;51.014;6.678;2024-02-15T05:50:56;6.43;;;3.30;;
9880;SDS011;4979;51.014;6.678;2024-02-15T05:53:23;4.80;;;2.38;;
9880;SDS011;4979;51.014;6.678;2024-02-15T05:55:49;3.95;;;2.22;;
9880;SDS011;4979;51.014;6.678;2024-02-15T05:58:15;7.50;;;2.78;;
9880;SDS011;4979;51.014;6.678;2024-02-15T06:00:41;4.90;;;2.13;;
9880;SDS011;4979;51.014;6.678;2024-02-15T06:03:09;5.40;;;2.75;;
9880;SDS011;4979;51.014;6.678;2024-02-15T06:05:36;7.13;;;2.90;;
9880;SDS011;4979;51.014;6.678;2024-02-15T06:08:02;10.93;;;4.25;;
9880;SDS011;4979;51.014;6.678;2024-02-15T06:10:27;5.78;;;2.53;;
9880;SDS011;4979;51.014;6.678;2024-02-15T06:12:54;8.27;;;3.15;;
9880;SDS011;4979;51.014;6.678;2024-02-15T06:15:21;6.97;;;2.80;;
9880;SDS011;4979;51.014;6.678;2024-02-15T06:17:48;5.35;;;1.90;;
9880;SDS011;4979;51.014;6.678;2024-02-15T06:20:14;7.90;;;3.08;;
9880;SDS011;4979;51.014;6.678;2024-02-15T06:22:43;9.50;;;5.40;;
9880;SDS011;4979;51.014;6.678;2024-02-15T06:25:09;8.65;;;3.05;;
9880;SDS011;4979;51.014;6.678;2024-02-15T06:27:38;9.23;;;3.20;;
9880;SDS011;4979;51.014;6.678;2024-02-15T06:30:10;8.52;;;3.00;;
9880;SDS011;4979;51.014;6.678;2024-02-15T06:32:56;9.68;;;4.57;;
9880;SDS011;4979;51.014;6.678;2024-02-15T06:35:41;10.00;;;3.97;;
9880;SDS011;4979;51.014;6.678;2024-02-15T06:38:25;5.75;;;3.10;;
9880;SDS011;4979;51.014;6.678;2024-02-15T06:41:09;7.32;;;2.08;;
9880;SDS011;4979;51.014;6.678;2024-02-15T06:43:35;10.45;;;5.07;;
9880;SDS011;4979;51.014;6.678;2024-02-15T06:46:01;6.88;;;2.88;;
9880;SDS011;4979;51.014;6.678;2024-02-15T06:48:27;10.55;;;3.78;;
9880;SDS011;4979;51.014;6.678;2024-02-15T06:50:53;5.80;;;2.50;;
9880;SDS011;4979;51.014;6.678;2024-02-15T06:53:19;4.65;;;2.10;;
9880;SDS011;4979;51.014;6.678;2024-02-15T06:55:45;7.10;;;3.42;;
9880;SDS011;4979;51.014;6.678;2024-02-15T06:58:14;5.00;;;2.30;;
9880;SDS011;4979;51.014;6.678;2024-02-15T07:00:41;8.43;;;3.50;;
9880;SDS011;4979;51.014;6.678;2024-02-15T07:03:07;4.55;;;2.45;;
9880;SDS011;4979;51.014;6.678;2024-02-15T07:05:34;10.50;;;5.47;;
9880;SDS011;4979;51.014;6.678;2024-02-15T07:07:59;8.40;;;3.40;;
9880;SDS011;4979;51.014;6.678;2024-02-15T07:10:26;5.43;;;2.10;;
9880;SDS011;4979;51.014;6.678;2024-02-15T07:12:51;9.40;;;3.38;;
9880;SDS011;4979;51.014;6.678;2024-02-15T07:15:17;6.15;;;2.92;;
9880;SDS011;4979;51.014;6.678;2024-02-15T07:17:43;7.60;;;2.78;;
9880;SDS011;4979;51.014;6.678;2024-02-15T07:20:10;4.72;;;2.88;;
9880;SDS011;4979;51.014;6.678;2024-02-15T07:22:42;10.27;;;3.70;;
9880;SDS011;4979;51.014;6.678;2024-02-15T07:25:11;5.28;;;2.05;;
9880;SDS011;4979;51.014;6.678;2024-02-15T07:27:36;8.10;;;2.67;;
9880;SDS011;4979;51.014;6.678;2024-02-15T07:30:02;11.77;;;5.60;;
9880;SDS011;4979;51.014;6.678;2024-02-15T07:32:30;10.95;;;4.57;;
9880;SDS011;4979;51.014;6.678;2024-02-15T07:34:56;6.90;;;3.35;;
9880;SDS011;4979;51.014;6.678;2024-02-15T07:37:22;8.80;;;4.63;;
9880;SDS011;4979;51.014;6.678;2024-02-15T07:39:51;16.35;;;6.60;;
9880;SDS011;4979;51.014;6.678;2024-02-15T07:42:17;9.65;;;4.63;;
9880;SDS011;4979;51.014;6.678;2024-02-15T07:44:42;10.27;;;5.70;;
9880;SDS011;4979;51.014;6.678;2024-02-15T07:47:08;9.65;;;7.93;;
9880;SDS011;4979;51.014;6.678;2024-02-15T07:49:35;8.60;;;5.30;;
9880;SDS011;4979;51.014;6.678;2024-02-15T07:52:01;6.57;;;4.28;;
9880;SDS011;4979;51.014;6.678;2024-02-15T07:54:29;6.10;;;3.83;;
9880;SDS011;4979;51.014;6.678;2024-02-15T07:56:56;6.63;;;3.13;;
9880;SDS011;4979;51.014;6.678;2024-02-15T07:59:23;8.07;;;4.18;;
9880;SDS011;4979;51.014;6.678;2024-02-15T08:01:48;9.15;;;3.53;;
9880;SDS011;4979;51.014;6.678;2024-02-15T08:04:15;5.38;;;3.00;;
9880;SDS011;4979;51.014;6.678;2024-02-15T08:06:42;9.60;;;3.72;;
9880;SDS011;4979;51.014;6.678;2024-02-15T08:09:08;5.10;;;2.78;;
9880;SDS011;4979;51.014;6.678;2024-02-15T08:11:39;9.00;;;2.97;;
9880;SDS011;4979;51.014;6.678;2024-02-15T08:14:05;9.90;;;3.35;;
9880;SDS011;4979;51.014;6.678;2024-02-15T08:16:33;9.18;;;2.38;;
9880;SDS011;4979;51.014;6.678;2024-02-15T08:18:59;9.57;;;3.97;;
9880;SDS011;4979;51.014;6.678;2024-02-15T08:21:26;8.27;;;4.60;;
9880;SDS011;4979;51.014;6.678;2024-02-15T08:23:54;6.10;;;2.22;;
9880;SDS011;4979;51.014;6.678;2024-02-15T08:26:20;7.47;;;2.60;;
9880;SDS011;4979;51.014;6.678;2024-02-15T08:28:46;6.72;;;3.45;;
9880;SDS011;4979;51.014;6.678;2024-02-15T08:31:12;5.70;;;2.30;;
9880;SDS011;4979;51.014;6.678;2024-02-15T08:33:40;5.30;;;2.28;;
9880;SDS011;4979;51.014;6.678;2024-02-15T08:36:07;11.13;;;3.40;;
9880;SDS011;4979;51.014;6.678;2024-02-15T08:38:32;5.25;;;2.70;;
9880;SDS011;4979;51.014;6.678;2024-02-15T08:40:59;10.27;;;3.10;;
9880;SDS011;4979;51.014;6.678;2024-02-15T08:43:24;5.00;;;2.78;;
9880;SDS011;4979;51.014;6.678;2024-02-15T08:45:50;5.53;;;2.70;;
9880;SDS011;4979;51.014;6.678;2024-02-15T08:48:15;7.03;;;2.20;;
9880;SDS011;4979;51.014;6.678;2024-02-15T08:50:41;5.20;;;2.63;;
9880;SDS011;4979;51.014;6.678;2024-02-15T08:53:07;6.78;;;2.53;;
9880;SDS011;4979;51.014;6.678;2024-02-15T08:55:32;5.07;;;2.40;;
9880;SDS011;4979;51.014;6.678;2024-02-15T08:58:00;7.13;;;2.60;;
9880;SDS011;4979;51.014;6.678;2024-02-15T09:00:27;7.05;;;2.55;;
9880;SDS011;4979;51.014;6.678;2024-02-15T09:02:52;4.93;;;2.15;;
9880;SDS011;4979;51.014;6.678;2024-02-15T09:05:18;5.97;;;2.65;;
9880;SDS011;4979;51.014;6.678;2024-02-15T09:07:47;7.15;;;2.28;;
9880;SDS011;4979;51.014;6.678;2024-02-15T09:10:13;6.20;;;2.20;;
9880;SDS011;4979;51.014;6.678;2024-02-15T09:12:42;4.10;;;1.70;;
9880;SDS011;4979;51.014;6.678;2024-02-15T09:15:09;5.22;;;2.53;;
9880;SDS011;4979;51.014;6.678;2024-02-15T09:17:39;3.63;;;1.60;;
9880;SDS011;4979;51.014;6.678;2024-02-15T09:20:08;8.77;;;2.05;;
9880;SDS011;4979;51.014;6.678;2024-02-15T09:22:40;2.55;;;1.70;;
9880;SDS011;4979;51.014;6.678;2024-02-15T09:25:13;4.35;;;1.92;;
9880;SDS011;4979;51.014;6.678;2024-02-15T09:27:39;6.25;;;2.35;;
9880;SDS011;4979;51.014;6.678;2024-02-15T09:30:05;5.85;;;1.85;;
9880;SDS011;4979;51.014;6.678;2024-02-15T09:32:37;9.00;;;2.38;;
9880;SDS011;4979;51.014;6.678;2024-02-15T09:35:04;4.43;;;2.10;;
9880;SDS011;4979;51.014;6.678;2024-02-15T09:37:35;4.78;;;1.70;;
9880;SDS011;4979;51.014;6.678;2024-02-15T09:40:07;3.90;;;1.98;;
9880;SDS011;4979;51.014;6.678;2024-02-15T09:42:35;4.53;;;2.00;;
9880;SDS011;4979;51.014;6.678;2024-02-15T09:45:01;7.32;;;2.55;;
9880;SDS011;4979;51.014;6.678;2024-02-15T09:47:45;3.33;;;1.65;;
9880;SDS011;4979;51.014;6.678;2024-02-15T09:50:15;4.25;;;1.90;;
9880;SDS011;4979;51.014;6.678;2024-02-15T09:52:51;4.35;;;2.08;;
9880;SDS011;4979;51.014;6.678;2024-02-15T09:55:19;7.75;;;2.17;;
9880;SDS011;4979;51.014;6.678;2024-02-15T09:57:47;4.70;;;1.83;;
9880;SDS011;4979;51.014;6.678;2024-02-15T10:00:14;5.55;;;1.95;;
9880;SDS011;4979;51.014;6.678;2024-02-15T10:02:42;7.47;;;2.08;;
9880;SDS011;4979;51.014;6.678;2024-02-15T10:05:09;5.93;;;2.03;;
9880;SDS011;4979;51.014;6.678;2024-02-15T10:07:37;7.30;;;2.08;;
9880;SDS011;4979;51.014;6.678;2024-02-15T10:10:14;4.43;;;1.77;;
9880;SDS011;4979;51.014;6.678;2024-02-15T10:12:44;5.75;;;1.67;;
9880;SDS011;4979;51.014;6.678;2024-02-15T10:15:35;5.60;;;2.10;;
9880;SDS011;4979;51.014;6.678;2024-02-15T10:18:06;4.88;;;1.70;;
9880;SDS011;4979;51.014;6.678;2024-02-15T10:20:34;7.45;;;2.10;;
9880;SDS011;4979;51.014;6.678;2024-02-15T10:25:36;5.28;;;2.20;;
9880;SDS011;4979;51.014;6.678;2024-02-15T10:28:06;7.18;;;2.13;;
9880;SDS011;4979;51.014;6.678;2024-02-15T10:30:43;7.97;;;2.47;;
9880;SDS011;4979;51.014;6.678;2024-02-15T10:33:10;3.88;;;2.03;;
9880;SDS011;4979;51.014;6.678;2024-02-15T10:35:49;3.78;;;1.80;;
9880;SDS011;4979;51.014;6.678;2024-02-15T10:38:14;5.07;;;1.90;;
9880;SDS011;4979;51.014;6.678;2024-02-15T10:40:40;5.03;;;2.92;;
9880;SDS011;4979;51.014;6.678;2024-02-15T10:43:10;4.80;;;2.67;;
9880;SDS011;4979;51.014;6.678;2024-02-15T10:45:38;2.95;;;1.85;;
9880;SDS011;4979;51.014;6.678;2024-02-15T10:48:08;4.93;;;1.60;;
9880;SDS011;4979;51.014;6.678;2024-02-15T10:50:35;5.00;;;2.17;;
9880;SDS011;4979;51.014;6.678;2024-02-15T10:53:03;4.55;;;1.92;;
9880;SDS011;4979;51.014;6.678;2024-02-15T10:55:53;4.97;;;3.25;;
9880;SDS011;4979;51.014;6.678;2024-02-15T10:58:25;5.03;;;2.15;;
9880;SDS011;4979;51.014;6.678;2024-02-15T11:00:53;3.83;;;2.53;;
9880;SDS011;4979;51.014;6.678;2024-02-15T11:03:20;8.23;;;2.33;;
9880;SDS011;4979;51.014;6.678;2024-02-15T11:05:51;3.65;;;2.00;;
9880;SDS011;4979;51.014;6.678;2024-02-15T11:08:17;2.67;;;1.70;;
9880;SDS011;4979;51.014;6.678;2024-02-15T11:10:43;5.10;;;2.17;;
9880;SDS011;4979;51.014;6.678;2024-02-15T11:13:09;3.08;;;1.65;;
9880;SDS011;4979;51.014;6.678;2024-02-15T11:21:09;5.95;;;1.70;;
9880;SDS011;4979;51.014;6.678;2024-02-15T11:23:35;3.67;;;2.00;;
9880;SDS011;4979;51.014;6.678;2024-02-15T11:26:01;4.28;;;2.30;;
9880;SDS011;4979;51.014;6.678;2024-02-15T11:31:01;4.50;;;1.98;;
9880;SDS011;4979;51.014;6.678;2024-02-15T11:33:34;5.78;;;2.72;;
9880;SDS011;4979;51.014;6.678;2024-02-15T11:36:07;5.78;;;2.38;;
9880;SDS011;4979;51.014;6.678;2024-02-15T11:38:37;6.30;;;3.67;;
9880;SDS011;4979;51.014;6.678;2024-02-15T11:41:08;8.88;;;3.08;;
9880;SDS011;4979;51.014;6.678;2024-02-15T11:46:26;10.38;;;4.55;;
9880;SDS011;4979;51.014;6.678;2024-02-15T11:48:57;3.60;;;1.77;;
9880;SDS011;4979;51.014;6.678;2024-02-15T11:51:33;5.30;;;1.90;;
9880;SDS011;4979;51.014;6.678;2024-02-15T11:54:08;5.97;;;1.73;;
9880;SDS011;4979;51.014;6.678;2024-02-15T11:56:58;3.75;;;1.58;;
9880;SDS011;4979;51.014;6.678;2024-02-15T11:59:41;5.25;;;1.80;;
9880;SDS011;4979;51.014;6.678;2024-02-15T12:02:18;7.20;;;1.70;;
9880;SDS011;4979;51.014;6.678;2024-02-15T12:05:05;3.55;;;1.83;;
9880;SDS011;4979;51.014;6.678;2024-02-15T12:07:50;4.63;;;1.52;;
9880;SDS011;4979;51.014;6.678;2024-02-15T12:10:34;1.95;;;1.40;;
9880;SDS011;4979;51.014;6.678;2024-02-15T12:13:19;2.33;;;1.55;;
9880;SDS011;4979;51.014;6.678;2024-02-15T12:16:03;6.57;;;1.52;;
9880;SDS011;4979;51.014;6.678;2024-02-15T12:18:48;4.88;;;1.65;;
9880;SDS011;4979;51.014;6.678;2024-02-15T12:21:18;7.80;;;1.23;;
9880;SDS011;4979;51.014;6.678;2024-02-15T12:23:48;3.63;;;1.20;;
9880;SDS011;4979;51.014;6.678;2024-02-15T12:26:18;4.18;;;1.50;;
9880;SDS011;4979;51.014;6.678;2024-02-15T12:28:44;5.18;;;1.65;;
9880;SDS011;4979;51.014;6.678;2024-02-15T12:31:14;3.78;;;1.42;;
9880;SDS011;4979;51.014;6.678;2024-02-15T12:33:40;4.28;;;1.73;;
9880;SDS011;4979;51.014;6.678;2024-02-15T12:36:06;3.20;;;1.38;;
9880;SDS011;4979;51.014;6.678;2024-02-15T12:38:32;2.85;;;1.45;;
9880;SDS011;4979;51.014;6.678;2024-02-15T12:41:23;4.85;;;1.48;;
9880;SDS011;4979;51.014;6.678;2024-02-15T12:43:54;2.20;;;1.08;;
9880;SDS011;4979;51.014;6.678;2024-02-15T12:46:22;4.47;;;1.30;;
9880;SDS011;4979;51.014;6.678;2024-02-15T12:48:47;3.78;;;1.55;;
9880;SDS011;4979;51.014;6.678;2024-02-15T12:51:14;4.90;;;1.60;;
9880;SDS011;4979;51.014;6.678;2024-02-15T12:53:41;3.58;;;1.67;;
9880;SDS011;4979;51.014;6.678;2024-02-15T12:56:06;2.58;;;1.52;;
9880;SDS011;4979;51.014;6.678;2024-02-15T12:58:34;3.30;;;1.60;;
9880;SDS011;4979;51.014;6.678;2024-02-15T13:01:00;5.55;;;1.55;;
9880;SDS011;4979;51.014;6.678;2024-02-15T13:03:26;3.70;;;1.73;;
9880;SDS011;4979;51.014;6.678;2024-02-15T13:05:52;2.20;;;1.40;;
9880;SDS011;4979;51.014;6.678;2024-02-15T13:08:18;4.47;;;1.55;;
9880;SDS011;4979;51.014;6.678;2024-02-15T13:10:44;2.45;;;1.35;;
9880;SDS011;4979;51.014;6.678;2024-02-15T13:13:10;3.92;;;1.60;;
9880;SDS011;4979;51.014;6.678;2024-02-15T13:15:36;1.88;;;1.33;;
9880;SDS011;4979;51.014;6.678;2024-02-15T13:18:02;5.07;;;1.42;;
9880;SDS011;4979;51.014;6.678;2024-02-15T13:20:31;3.70;;;1.80;;
9880;SDS011;4979;51.014;6.678;2024-02-15T13:23:04;4.28;;;1.55;;
9880;SDS011;4979;51.014;6.678;2024-02-15T13:25:34;5.93;;;2.30;;
9880;SDS011;4979;51.014;6.678;2024-02-15T13:28:04;5.95;;;2.20;;
9880;SDS011;4979;51.014;6.678;2024-02-15T13:30:31;2.85;;;2.20;;
9880;SDS011;4979;51.014;6.678;2024-02-15T13:32:57;4.18;;;1.40;;
9880;SDS011;4979;51.014;6.678;2024-02-15T13:35:23;6.60;;;3.28;;
9880;SDS011;4979;51.014;6.678;2024-02-15T13:37:55;14.05;;;6.60;;
9880;SDS011;4979;51.014;6.678;2024-02-15T13:40:23;16.17;;;6.88;;
9880;SDS011;4979;51.014;6.678;2024-02-15T13:42:50;4.28;;;2.00;;
9880;SDS011;4979;51.014;6.678;2024-02-15T13:45:20;8.40;;;5.70;;
9880;SDS011;4979;51.014;6.678;2024-02-15T13:48:02;7.65;;;2.50;;
9880;SDS011;4979;51.014;6.678;2024-02-15T13:50:30;4.95;;;2.10;;
9880;SDS011;4979;51.014;6.678;2024-02-15T13:52:56;4.32;;;2.92;;
9880;SDS011;4979;51.014;6.678;2024-02-15T13:55:25;6.95;;;1.80;;
9880;SDS011;4979;51.014;6.678;2024-02-15T13:57:52;4.25;;;2.13;;
9880;SDS011;4979;51.014;6.678;2024-02-15T14:00:18;4.70;;;2.38;;
9880;SDS011;4979;51.014;6.678;2024-02-15T14:02:54;3.47;;;1.60;;
9880;SDS011;4979;51.014;6.678;2024-02-15T14:05:23;10.45;;;6.22;;
9880;SDS011;4979;51.014;6.678;2024-02-15T14:07:51;4.53;;;2.40;;
9880;SDS011;4979;51.014;6.678;2024-02-15T14:10:20;5.10;;;2.55;;
9880;SDS011;4979;51.014;6.678;2024-02-15T14:12:47;4.35;;;2.53;;
9880;SDS011;4979;51.014;6.678;2024-02-15T14:15:14;5.60;;;2.17;;
9880;SDS011;4979;51.014;6.678;2024-02-15T14:17:40;3.42;;;1.40;;
9880;SDS011;4979;51.014;6.678;2024-02-15T14:20:06;2.55;;;1.58;;
9880;SDS011;4979;51.014;6.678;2024-02-15T14:22:38;3.92;;;1.60;;
9880;SDS011;4979;51.014;6.678;2024-02-15T14:25:09;2.40;;;1.95;;
9880;SDS011;4979;51.014;6.678;2024-02-15T14:27:34;2.85;;;1.30;;
9880;SDS011;4979;51.014;6.678;2024-02-15T14:30:00;4.03;;;2.00;;
9880;SDS011;4979;51.014;6.678;2024-02-15T14:32:48;3.85;;;1.60;;
9880;SDS011;4979;51.014;6.678;2024-02-15T14:35:32;2.75;;;1.40;;
9880;SDS011;4979;51.014;6.678;2024-02-15T14:38:02;5.68;;;1.33;;
9880;SDS011;4979;51.014;6.678;2024-02-15T14:40:35;3.42;;;1.45;;
9880;SDS011;4979;51.014;6.678;2024-02-15T14:43:02;2.22;;;1.50;;
9880;SDS011;4979;51.014;6.678;2024-02-15T14:45:32;3.50;;;1.58;;
9880;SDS011;4979;51.014;6.678;2024-02-15T14:47:58;5.22;;;1.52;;
9880;SDS011;4979;51.014;6.678;2024-02-15T14:50:24;2.70;;;2.03;;
9880;SDS011;4979;51.014;6.678;2024-02-15T14:52:50;5.25;;;2.03;;
9880;SDS011;4979;51.014;6.678;2024-02-15T14:55:18;10.35;;;3.78;;
9880;SDS011;4979;51.014;6.678;2024-02-15T14:57:44;7.68;;;4.82;;
9880;SDS011;4979;51.014;6.678;2024-02-15T15:00:10;7.43;;;3.80;;
9880;SDS011;4979;51.014;6.678;2024-02-15T15:02:41;8.77;;;4.25;;
9880;SDS011;4979;51.014;6.678;2024-02-15T15:05:08;5.22;;;1.80;;
9880;SDS011;4979;51.014;6.678;2024-02-15T15:07:52;2.47;;;1.67;;
9880;SDS011;4979;51.014;6.678;2024-02-15T15:10:36;8.65;;;1.90;;
9880;SDS011;4979;51.014;6.678;2024-02-15T15:13:20;4.13;;;1.75;;
9880;SDS011;4979;51.014;6.678;2024-02-15T15:15:46;7.35;;;1.95;;
9880;SDS011;4979;51.014;6.678;2024-02-15T15:18:13;8.02;;;2.22;;
9880;SDS011;4979;51.014;6.678;2024-02-15T15:20:38;4.53;;;1.75;;
9880;SDS011;4979;51.014;6.678;2024-02-15T15:23:05;2.90;;;2.10;;
9880;SDS011;4979;51.014;6.678;2024-02-15T15:25:32;4.88;;;1.80;;
9880;SDS011;4979;51.014;6.678;2024-02-15T15:27:57;3.17;;;1.92;;
9880;SDS011;4979;51.014;6.678;2024-02-15T15:30:23;3.17;;;1.67;;
9880;SDS011;4979;51.014;6.678;2024-02-15T15:32:49;2.72;;;1.30;;
9880;SDS011;4979;51.014;6.678;2024-02-15T15:35:15;4.53;;;1.88;;